sensor_id;sensor_type;location;lat;lon;timestamp;P1;durP1;ratioP1;P2;durP2;ratioP2
13002;SDS011;6566;57.702;11.984;2022-07-24T00:01:08;6.68;;;1.27;;
13002;SDS011;6566;57.702;11.984;2022-07-24T00:03:33;5.13;;;1.20;;
13002;SDS011;6566;57.702;11.984;2022-07-24T00:06:01;4.70;;;1.30;;
13002;SDS011;6566;57.702;11.984;2022-07-24T00:08:26;4.97;;;1.42;;
13002;SDS011;6566;57.702;11.984;2022-07-24T00:10:53;8.10;;;1.80;;
13002;SDS011;6566;57.702;11.984;2022-07-24T00:13:20;9.63;;;1.90;;
13002;SDS011;6566;57.702;11.984;2022-07-24T00:15:46;7.75;;;1.95;;
13002;SDS011;6566;57.702;11.984;2022-07-24T00:18:12;7.65;;;1.65;;
13002;SDS011;6566;57.702;11.984;2022-07-24T00:20:39;5.32;;;1.58;;
13002;SDS011;6566;57.702;11.984;2022-07-24T00:23:04;5.80;;;1.40;;
13002;SDS011;6566;57.702;11.984;2022-07-24T00:25:30;3.83;;;1.33;;
13002;SDS011;6566;57.702;11.984;2022-07-24T00:27:57;4.90;;;1.35;;
13002;SDS011;6566;57.702;11.984;2022-07-24T00:30:27;3.67;;;1.40;;
13002;SDS011;6566;57.702;11.984;2022-07-24T00:32:53;5.10;;;2.05;;
13002;SDS011;6566;57.702;11.984;2022-07-24T00:35:19;4.10;;;1.60;;
13002;SDS011;6566;57.702;11.984;2022-07-24T00:37:46;7.90;;;1.98;;
13002;SDS011;6566;57.702;11.984;2022-07-24T00:40:13;4.95;;;1.50;;
13002;SDS011;6566;57.702;11.984;2022-07-24T00:42:42;6.45;;;1.50;;
13002;SDS011;6566;57.702;11.984;2022-07-24T00:45:09;5.72;;;1.67;;
13002;SDS011;6566;57.702;11.984;2022-07-24T00:47:34;3.80;;;1.48;;
13002;SDS011;6566;57.702;11.984;2022-07-24T00:50:01;4.77;;;1.83;;
13002;SDS011;6566;57.702;11.984;2022-07-24T00:52:30;2.85;;;1.30;;
13002;SDS011;6566;57.702;11.984;2022-07-24T00:54:56;4.60;;;1.55;;
13002;SDS011;6566;57.702;11.984;2022-07-24T00:57:22;8.18;;;1.63;;
13002;SDS011;6566;57.702;11.984;2022-07-24T00:59:48;4.93;;;1.38;;
13002;SDS011;6566;57.702;11.984;2022-07-24T01:02:15;3.70;;;1.25;;
13002;SDS011;6566;57.702;11.984;2022-07-24T01:04:40;5.07;;;1.13;;
13002;SDS011;6566;57.702;11.984;2022-07-24T01:07:07;3.90;;;1.63;;
13002;SDS011;6566;57.702;11.984;2022-07-24T01:09:35;3.97;;;1.42;;
13002;SDS011;6566;57.702;11.984;2022-07-24T01:12:02;5.32;;;1.73;;
13002;SDS011;6566;57.702;11.984;2022-07-24T01:14:31;4.43;;;1.38;;
13002;SDS011;6566;57.702;11.984;2022-07-24T01:16:57;3.53;;;1.50;;
13002;SDS011;6566;57.702;11.984;2022-07-24T01:19:24;5.10;;;1.50;;
13002;SDS011;6566;57.702;11.984;2022-07-24T01:21:51;4.10;;;1.23;;
13002;SDS011;6566;57.702;11.984;2022-07-24T01:24:18;3.58;;;1.40;;
13002;SDS011;6566;57.702;11.984;2022-07-24T01:26:47;2.30;;;1.30;;
13002;SDS011;6566;57.702;11.984;2022-07-24T01:29:14;4.88;;;1.25;;
13002;SDS011;6566;57.702;11.984;2022-07-24T01:31:41;4.18;;;1.27;;
13002;SDS011;6566;57.702;11.984;2022-07-24T01:34:07;6.43;;;1.45;;
13002;SDS011;6566;57.702;11.984;2022-07-24T01:36:34;3.72;;;1.10;;
13002;SDS011;6566;57.702;11.984;2022-07-24T01:39:00;4.85;;;1.45;;
13002;SDS011;6566;57.702;11.984;2022-07-24T01:41:27;3.13;;;1.30;;
13002;SDS011;6566;57.702;11.984;2022-07-24T01:43:53;4.05;;;1.33;;
13002;SDS011;6566;57.702;11.984;2022-07-24T01:46:18;4.47;;;1.30;;
13002;SDS011;6566;57.702;11.984;2022-07-24T01:48:45;5.33;;;1.33;;
13002;SDS011;6566;57.702;11.984;2022-07-24T01:51:11;8.75;;;1.50;;
13002;SDS011;6566;57.702;11.984;2022-07-24T01:53:38;5.43;;;1.60;;
13002;SDS011;6566;57.702;11.984;2022-07-24T01:56:04;4.05;;;1.35;;
13002;SDS011;6566;57.702;11.984;2022-07-24T01:58:30;6.13;;;1.40;;
13002;SDS011;6566;57.702;11.984;2022-07-24T02:00:57;2.15;;;1.20;;
13002;SDS011;6566;57.702;11.984;2022-07-24T02:03:24;2.92;;;1.30;;
13002;SDS011;6566;57.702;11.984;2022-07-24T02:05:50;5.32;;;1.50;;
13002;SDS011;6566;57.702;11.984;2022-07-24T02:08:17;4.47;;;1.27;;
13002;SDS011;6566;57.702;11.984;2022-07-24T02:10:42;2.78;;;1.33;;
13002;SDS011;6566;57.702;11.984;2022-07-24T02:13:09;4.82;;;1.30;;
13002;SDS011;6566;57.702;11.984;2022-07-24T02:15:36;3.40;;;1.10;;
13002;SDS011;6566;57.702;11.984;2022-07-24T02:18:01;4.20;;;1.17;;
13002;SDS011;6566;57.702;11.984;2022-07-24T02:20:29;9.20;;;1.85;;
13002;SDS011;6566;57.702;11.984;2022-07-24T02:22:56;5.57;;;1.15;;
13002;SDS011;6566;57.702;11.984;2022-07-24T02:25:22;5.35;;;1.40;;
13002;SDS011;6566;57.702;11.984;2022-07-24T02:27:49;2.47;;;1.20;;
13002;SDS011;6566;57.702;11.984;2022-07-24T02:30:16;2.33;;;1.15;;
13002;SDS011;6566;57.702;11.984;2022-07-24T02:32:43;4.28;;;1.30;;
13002;SDS011;6566;57.702;11.984;2022-07-24T02:35:09;3.47;;;1.10;;
13002;SDS011;6566;57.702;11.984;2022-07-24T02:37:37;3.35;;;1.23;;
13002;SDS011;6566;57.702;11.984;2022-07-24T02:40:05;5.03;;;1.50;;
13002;SDS011;6566;57.702;11.984;2022-07-24T02:42:40;4.50;;;1.40;;
13002;SDS011;6566;57.702;11.984;2022-07-24T02:45:07;3.33;;;1.13;;
13002;SDS011;6566;57.702;11.984;2022-07-24T02:47:35;7.82;;;1.50;;
13002;SDS011;6566;57.702;11.984;2022-07-24T02:50:02;5.57;;;1.20;;
13002;SDS011;6566;57.702;11.984;2022-07-24T02:52:29;7.60;;;1.30;;
13002;SDS011;6566;57.702;11.984;2022-07-24T02:54:55;4.25;;;1.33;;
13002;SDS011;6566;57.702;11.984;2022-07-24T02:57:20;4.80;;;1.10;;
13002;SDS011;6566;57.702;11.984;2022-07-24T02:59:46;4.07;;;1.50;;
13002;SDS011;6566;57.702;11.984;2022-07-24T03:02:18;4.97;;;1.38;;
13002;SDS011;6566;57.702;11.984;2022-07-24T03:04:45;4.85;;;1.38;;
13002;SDS011;6566;57.702;11.984;2022-07-24T03:07:12;4.35;;;1.38;;
13002;SDS011;6566;57.702;11.984;2022-07-24T03:09:38;7.53;;;1.40;;
13002;SDS011;6566;57.702;11.984;2022-07-24T03:12:05;2.75;;;1.05;;
13002;SDS011;6566;57.702;11.984;2022-07-24T03:14:31;4.05;;;1.30;;
13002;SDS011;6566;57.702;11.984;2022-07-24T03:16:58;5.03;;;1.20;;
13002;SDS011;6566;57.702;11.984;2022-07-24T03:19:23;5.82;;;1.38;;
13002;SDS011;6566;57.702;11.984;2022-07-24T03:21:50;4.00;;;1.20;;
13002;SDS011;6566;57.702;11.984;2022-07-24T03:24:16;2.78;;;1.10;;
13002;SDS011;6566;57.702;11.984;2022-07-24T03:26:42;4.65;;;1.17;;
13002;SDS011;6566;57.702;11.984;2022-07-24T03:29:09;2.20;;;1.33;;
13002;SDS011;6566;57.702;11.984;2022-07-24T03:31:35;3.03;;;1.38;;
13002;SDS011;6566;57.702;11.984;2022-07-24T03:34:01;2.28;;;1.20;;
13002;SDS011;6566;57.702;11.984;2022-07-24T03:36:28;2.28;;;1.70;;
13002;SDS011;6566;57.702;11.984;2022-07-24T03:38:54;3.13;;;1.30;;
13002;SDS011;6566;57.702;11.984;2022-07-24T03:41:20;5.03;;;1.00;;
13002;SDS011;6566;57.702;11.984;2022-07-24T03:43:46;5.27;;;1.20;;
13002;SDS011;6566;57.702;11.984;2022-07-24T03:46:12;5.85;;;1.25;;
13002;SDS011;6566;57.702;11.984;2022-07-24T03:48:39;2.53;;;1.10;;
13002;SDS011;6566;57.702;11.984;2022-07-24T03:51:05;3.75;;;1.30;;
13002;SDS011;6566;57.702;11.984;2022-07-24T03:53:31;8.85;;;1.80;;
13002;SDS011;6566;57.702;11.984;2022-07-24T03:55:58;2.70;;;1.17;;
13002;SDS011;6566;57.702;11.984;2022-07-24T03:58:24;4.10;;;1.27;;
13002;SDS011;6566;57.702;11.984;2022-07-24T04:00:51;3.10;;;1.60;;
13002;SDS011;6566;57.702;11.984;2022-07-24T04:03:17;5.20;;;1.25;;
13002;SDS011;6566;57.702;11.984;2022-07-24T04:05:44;2.85;;;1.67;;
13002;SDS011;6566;57.702;11.984;2022-07-24T04:08:10;1.80;;;1.00;;
13002;SDS011;6566;57.702;11.984;2022-07-24T04:10:37;6.85;;;1.40;;
13002;SDS011;6566;57.702;11.984;2022-07-24T04:13:03;3.42;;;1.20;;
13002;SDS011;6566;57.702;11.984;2022-07-24T04:15:29;4.65;;;1.30;;
13002;SDS011;6566;57.702;11.984;2022-07-24T04:17:55;3.33;;;1.20;;
13002;SDS011;6566;57.702;11.984;2022-07-24T04:20:22;4.10;;;1.20;;
13002;SDS011;6566;57.702;11.984;2022-07-24T04:22:48;2.17;;;1.13;;
13002;SDS011;6566;57.702;11.984;2022-07-24T04:25:15;2.63;;;1.45;;
13002;SDS011;6566;57.702;11.984;2022-07-24T04:27:42;4.75;;;1.33;;
13002;SDS011;6566;57.702;11.984;2022-07-24T04:30:08;5.13;;;1.42;;
13002;SDS011;6566;57.702;11.984;2022-07-24T04:32:34;3.33;;;1.30;;
13002;SDS011;6566;57.702;11.984;2022-07-24T04:35:02;4.90;;;1.42;;
13002;SDS011;6566;57.702;11.984;2022-07-24T04:37:28;3.38;;;1.40;;
13002;SDS011;6566;57.702;11.984;2022-07-24T04:39:56;3.40;;;1.20;;
13002;SDS011;6566;57.702;11.984;2022-07-24T04:42:22;5.40;;;1.50;;
13002;SDS011;6566;57.702;11.984;2022-07-24T04:44:49;4.50;;;1.00;;
13002;SDS011;6566;57.702;11.984;2022-07-24T04:47:16;5.03;;;1.08;;
13002;SDS011;6566;57.702;11.984;2022-07-24T04:49:42;1.35;;;0.95;;
13002;SDS011;6566;57.702;11.984;2022-07-24T04:52:08;1.92;;;1.00;;
13002;SDS011;6566;57.702;11.984;2022-07-24T04:54:38;4.60;;;1.33;;
13002;SDS011;6566;57.702;11.984;2022-07-24T04:57:05;2.97;;;1.20;;
13002;SDS011;6566;57.702;11.984;2022-07-24T04:59:31;8.68;;;1.40;;
13002;SDS011;6566;57.702;11.984;2022-07-24T05:01:57;4.38;;;1.17;;
13002;SDS011;6566;57.702;11.984;2022-07-24T05:04:24;5.80;;;1.40;;
13002;SDS011;6566;57.702;11.984;2022-07-24T05:06:50;4.72;;;1.30;;
13002;SDS011;6566;57.702;11.984;2022-07-24T05:09:17;3.15;;;1.52;;
13002;SDS011;6566;57.702;11.984;2022-07-24T05:11:45;2.17;;;1.10;;
13002;SDS011;6566;57.702;11.984;2022-07-24T05:14:10;5.63;;;1.48;;
13002;SDS011;6566;57.702;11.984;2022-07-24T05:16:37;1.90;;;1.00;;
13002;SDS011;6566;57.702;11.984;2022-07-24T05:19:03;2.55;;;1.40;;
13002;SDS011;6566;57.702;11.984;2022-07-24T05:21:30;4.20;;;1.30;;
13002;SDS011;6566;57.702;11.984;2022-07-24T05:23:56;4.97;;;1.40;;
13002;SDS011;6566;57.702;11.984;2022-07-24T05:26:22;4.20;;;1.25;;
13002;SDS011;6566;57.702;11.984;2022-07-24T05:28:49;6.77;;;1.60;;
13002;SDS011;6566;57.702;11.984;2022-07-24T05:31:15;4.03;;;1.45;;
13002;SDS011;6566;57.702;11.984;2022-07-24T05:33:42;3.30;;;1.30;;
13002;SDS011;6566;57.702;11.984;2022-07-24T05:36:08;4.60;;;1.58;;
13002;SDS011;6566;57.702;11.984;2022-07-24T05:38:35;6.25;;;1.13;;
13002;SDS011;6566;57.702;11.984;2022-07-24T05:41:01;3.25;;;1.23;;
13002;SDS011;6566;57.702;11.984;2022-07-24T05:43:28;6.90;;;1.65;;
13002;SDS011;6566;57.702;11.984;2022-07-24T05:45:55;4.90;;;1.40;;
13002;SDS011;6566;57.702;11.984;2022-07-24T05:48:22;4.95;;;1.30;;
13002;SDS011;6566;57.702;11.984;2022-07-24T05:50:48;3.63;;;1.45;;
13002;SDS011;6566;57.702;11.984;2022-07-24T05:53:15;4.50;;;1.20;;
13002;SDS011;6566;57.702;11.984;2022-07-24T05:55:41;3.03;;;1.15;;
13002;SDS011;6566;57.702;11.984;2022-07-24T05:58:08;3.38;;;1.30;;
13002;SDS011;6566;57.702;11.984;2022-07-24T06:00:34;3.78;;;1.38;;
13002;SDS011;6566;57.702;11.984;2022-07-24T06:03:00;4.88;;;1.23;;
13002;SDS011;6566;57.702;11.984;2022-07-24T06:05:26;2.72;;;1.02;;
13002;SDS011;6566;57.702;11.984;2022-07-24T06:07:52;5.68;;;1.00;;
13002;SDS011;6566;57.702;11.984;2022-07-24T06:10:19;3.88;;;1.30;;
13002;SDS011;6566;57.702;11.984;2022-07-24T06:12:45;4.50;;;1.20;;
13002;SDS011;6566;57.702;11.984;2022-07-24T06:15:11;4.45;;;1.48;;
13002;SDS011;6566;57.702;11.984;2022-07-24T06:17:38;2.30;;;1.10;;
13002;SDS011;6566;57.702;11.984;2022-07-24T06:20:05;3.85;;;1.50;;
13002;SDS011;6566;57.702;11.984;2022-07-24T06:22:32;7.07;;;1.60;;
13002;SDS011;6566;57.702;11.984;2022-07-24T06:24:59;1.98;;;1.00;;
13002;SDS011;6566;57.702;11.984;2022-07-24T06:27:25;2.88;;;1.10;;
13002;SDS011;6566;57.702;11.984;2022-07-24T06:29:52;4.82;;;1.23;;
13002;SDS011;6566;57.702;11.984;2022-07-24T06:32:18;3.08;;;1.40;;
13002;SDS011;6566;57.702;11.984;2022-07-24T06:34:43;6.78;;;1.42;;
13002;SDS011;6566;57.702;11.984;2022-07-24T06:37:10;4.60;;;1.40;;
13002;SDS011;6566;57.702;11.984;2022-07-24T06:39:35;4.05;;;1.30;;
13002;SDS011;6566;57.702;11.984;2022-07-24T06:42:03;2.33;;;0.98;;
13002;SDS011;6566;57.702;11.984;2022-07-24T06:44:31;2.67;;;1.23;;
13002;SDS011;6566;57.702;11.984;2022-07-24T06:47:00;3.95;;;1.55;;
13002;SDS011;6566;57.702;11.984;2022-07-24T06:49:27;4.63;;;1.52;;
13002;SDS011;6566;57.702;11.984;2022-07-24T06:51:53;3.40;;;1.10;;
13002;SDS011;6566;57.702;11.984;2022-07-24T06:54:20;4.47;;;1.33;;
13002;SDS011;6566;57.702;11.984;2022-07-24T06:56:46;3.70;;;1.60;;
13002;SDS011;6566;57.702;11.984;2022-07-24T06:59:13;2.72;;;1.48;;
13002;SDS011;6566;57.702;11.984;2022-07-24T07:01:39;5.68;;;1.83;;
13002;SDS011;6566;57.702;11.984;2022-07-24T07:04:05;2.90;;;1.60;;
13002;SDS011;6566;57.702;11.984;2022-07-24T07:06:32;3.75;;;1.63;;
13002;SDS011;6566;57.702;11.984;2022-07-24T07:08:58;3.20;;;1.20;;
13002;SDS011;6566;57.702;11.984;2022-07-24T07:11:24;5.10;;;1.38;;
13002;SDS011;6566;57.702;11.984;2022-07-24T07:13:49;3.22;;;1.52;;
13002;SDS011;6566;57.702;11.984;2022-07-24T07:16:16;5.40;;;1.50;;
13002;SDS011;6566;57.702;11.984;2022-07-24T07:18:42;2.63;;;1.13;;
13002;SDS011;6566;57.702;11.984;2022-07-24T07:21:09;3.05;;;1.20;;
13002;SDS011;6566;57.702;11.984;2022-07-24T07:23:35;5.45;;;1.30;;
13002;SDS011;6566;57.702;11.984;2022-07-24T07:26:01;4.13;;;1.48;;
13002;SDS011;6566;57.702;11.984;2022-07-24T07:28:28;5.68;;;1.20;;
13002;SDS011;6566;57.702;11.984;2022-07-24T07:30:54;4.85;;;1.48;;
13002;SDS011;6566;57.702;11.984;2022-07-24T07:33:21;5.75;;;1.38;;
13002;SDS011;6566;57.702;11.984;2022-07-24T07:35:47;6.72;;;1.40;;
13002;SDS011;6566;57.702;11.984;2022-07-24T07:53:29;3.45;;;1.30;;
13002;SDS011;6566;57.702;11.984;2022-07-24T07:55:55;4.03;;;1.30;;
13002;SDS011;6566;57.702;11.984;2022-07-24T07:58:22;5.15;;;1.40;;
13002;SDS011;6566;57.702;11.984;2022-07-24T08:00:54;5.18;;;1.40;;
13002;SDS011;6566;57.702;11.984;2022-07-24T08:03:21;2.33;;;1.27;;
13002;SDS011;6566;57.702;11.984;2022-07-24T08:05:47;7.20;;;1.70;;
13002;SDS011;6566;57.702;11.984;2022-07-24T08:08:13;3.05;;;1.02;;
13002;SDS011;6566;57.702;11.984;2022-07-24T08:10:39;3.45;;;1.50;;
13002;SDS011;6566;57.702;11.984;2022-07-24T08:13:05;3.67;;;1.20;;
13002;SDS011;6566;57.702;11.984;2022-07-24T08:15:30;2.83;;;1.30;;
13002;SDS011;6566;57.702;11.984;2022-07-24T08:17:57;2.92;;;1.40;;
13002;SDS011;6566;57.702;11.984;2022-07-24T08:20:25;2.33;;;1.30;;
13002;SDS011;6566;57.702;11.984;2022-07-24T08:23:01;3.30;;;1.17;;
13002;SDS011;6566;57.702;11.984;2022-07-24T08:25:27;2.20;;;1.25;;
13002;SDS011;6566;57.702;11.984;2022-07-24T08:27:53;3.28;;;1.48;;
13002;SDS011;6566;57.702;11.984;2022-07-24T08:30:20;6.03;;;1.50;;
13002;SDS011;6566;57.702;11.984;2022-07-24T08:32:48;3.42;;;1.55;;
13002;SDS011;6566;57.702;11.984;2022-07-24T08:35:13;3.63;;;1.50;;
13002;SDS011;6566;57.702;11.984;2022-07-24T08:37:41;1.70;;;1.40;;
13002;SDS011;6566;57.702;11.984;2022-07-24T08:40:11;4.00;;;1.60;;
13002;SDS011;6566;57.702;11.984;2022-07-24T08:42:38;4.20;;;1.77;;
13002;SDS011;6566;57.702;11.984;2022-07-24T08:45:08;3.45;;;1.70;;
13002;SDS011;6566;57.702;11.984;2022-07-24T08:47:35;8.18;;;1.90;;
13002;SDS011;6566;57.702;11.984;2022-07-24T08:50:04;3.78;;;1.40;;
13002;SDS011;6566;57.702;11.984;2022-07-24T08:52:32;4.40;;;1.40;;
13002;SDS011;6566;57.702;11.984;2022-07-24T08:54:59;5.47;;;1.50;;
13002;SDS011;6566;57.702;11.984;2022-07-24T08:57:26;3.60;;;1.60;;
13002;SDS011;6566;57.702;11.984;2022-07-24T08:59:53;2.88;;;1.50;;
13002;SDS011;6566;57.702;11.984;2022-07-24T09:02:19;2.05;;;1.60;;
13002;SDS011;6566;57.702;11.984;2022-07-24T09:04:47;3.65;;;1.38;;
13002;SDS011;6566;57.702;11.984;2022-07-24T09:09:43;1.60;;;1.50;;
13002;SDS011;6566;57.702;11.984;2022-07-24T09:12:13;3.28;;;1.50;;
13002;SDS011;6566;57.702;11.984;2022-07-24T09:14:41;3.25;;;1.40;;
13002;SDS011;6566;57.702;11.984;2022-07-24T09:17:10;3.50;;;2.00;;
13002;SDS011;6566;57.702;11.984;2022-07-24T09:22:39;3.63;;;1.58;;
13002;SDS011;6566;57.702;11.984;2022-07-24T09:25:22;4.10;;;1.48;;
13002;SDS011;6566;57.702;11.984;2022-07-24T09:27:57;3.47;;;1.40;;
13002;SDS011;6566;57.702;11.984;2022-07-24T09:30:41;4.55;;;1.30;;
13002;SDS011;6566;57.702;11.984;2022-07-24T09:33:15;1.15;;;1.10;;
13002;SDS011;6566;57.702;11.984;2022-07-24T09:38:11;1.85;;;1.20;;
13002;SDS011;6566;57.702;11.984;2022-07-24T09:40:43;1.95;;;1.00;;
13002;SDS011;6566;57.702;11.984;2022-07-24T09:43:25;3.42;;;1.17;;
13002;SDS011;6566;57.702;11.984;2022-07-24T09:45:55;2.08;;;1.08;;
13002;SDS011;6566;57.702;11.984;2022-07-24T09:48:23;3.35;;;1.55;;
13002;SDS011;6566;57.702;11.984;2022-07-24T09:50:51;2.85;;;1.45;;
13002;SDS011;6566;57.702;11.984;2022-07-24T09:53:18;7.55;;;1.65;;
13002;SDS011;6566;57.702;11.984;2022-07-24T09:55:55;3.05;;;1.30;;
13002;SDS011;6566;57.702;11.984;2022-07-24T09:58:25;4.95;;;1.33;;
13002;SDS011;6566;57.702;11.984;2022-07-24T10:00:54;2.35;;;1.15;;
13002;SDS011;6566;57.702;11.984;2022-07-24T10:03:27;3.45;;;1.85;;
13002;SDS011;6566;57.702;11.984;2022-07-24T10:06:00;3.55;;;1.30;;
13002;SDS011;6566;57.702;11.984;2022-07-24T10:08:28;3.35;;;1.10;;
13002;SDS011;6566;57.702;11.984;2022-07-24T10:10:54;1.80;;;1.30;;
13002;SDS011;6566;57.702;11.984;2022-07-24T10:13:19;3.20;;;1.33;;
13002;SDS011;6566;57.702;11.984;2022-07-24T10:15:51;2.37;;;1.17;;
13002;SDS011;6566;57.702;11.984;2022-07-24T10:18:17;1.92;;;1.10;;
13002;SDS011;6566;57.702;11.984;2022-07-24T10:20:45;2.10;;;1.00;;
13002;SDS011;6566;57.702;11.984;2022-07-24T10:23:24;3.25;;;1.48;;
13002;SDS011;6566;57.702;11.984;2022-07-24T10:28:43;2.35;;;1.05;;
13002;SDS011;6566;57.702;11.984;2022-07-24T10:31:13;4.00;;;1.30;;
13002;SDS011;6566;57.702;11.984;2022-07-24T10:33:40;3.00;;;1.33;;
13002;SDS011;6566;57.702;11.984;2022-07-24T10:36:17;1.80;;;1.20;;
13002;SDS011;6566;57.702;11.984;2022-07-24T10:38:51;3.53;;;1.30;;
13002;SDS011;6566;57.702;11.984;2022-07-24T10:41:23;9.05;;;1.50;;
13002;SDS011;6566;57.702;11.984;2022-07-24T10:46:55;3.53;;;1.42;;
13002;SDS011;6566;57.702;11.984;2022-07-24T10:52:10;3.08;;;1.48;;
13002;SDS011;6566;57.702;11.984;2022-07-24T10:54:38;2.50;;;1.50;;
13002;SDS011;6566;57.702;11.984;2022-07-24T10:57:04;2.63;;;1.25;;
13002;SDS011;6566;57.702;11.984;2022-07-24T10:59:37;2.90;;;1.30;;
13002;SDS011;6566;57.702;11.984;2022-07-24T11:05:09;3.17;;;1.60;;
13002;SDS011;6566;57.702;11.984;2022-07-24T11:07:36;4.18;;;1.42;;
13002;SDS011;6566;57.702;11.984;2022-07-24T11:10:03;2.92;;;1.40;;
13002;SDS011;6566;57.702;11.984;2022-07-24T11:12:36;4.38;;;1.50;;
13002;SDS011;6566;57.702;11.984;2022-07-24T11:15:10;6.15;;;1.63;;
13002;SDS011;6566;57.702;11.984;2022-07-24T11:17:53;3.35;;;1.25;;
13002;SDS011;6566;57.702;11.984;2022-07-24T11:20:21;3.33;;;1.13;;
13002;SDS011;6566;57.702;11.984;2022-07-24T11:22:51;2.40;;;1.60;;
13002;SDS011;6566;57.702;11.984;2022-07-24T11:25:29;4.43;;;1.65;;
13002;SDS011;6566;57.702;11.984;2022-07-24T11:28:05;5.40;;;1.67;;
13002;SDS011;6566;57.702;11.984;2022-07-24T11:30:41;5.38;;;1.58;;
13002;SDS011;6566;57.702;11.984;2022-07-24T11:33:09;5.38;;;1.77;;
13002;SDS011;6566;57.702;11.984;2022-07-24T11:35:36;3.53;;;1.73;;
13002;SDS011;6566;57.702;11.984;2022-07-24T11:38:06;2.17;;;1.52;;
13002;SDS011;6566;57.702;11.984;2022-07-24T11:40:34;2.58;;;1.60;;
13002;SDS011;6566;57.702;11.984;2022-07-24T11:43:02;3.15;;;1.30;;
13002;SDS011;6566;57.702;11.984;2022-07-24T11:45:38;4.60;;;1.60;;
13002;SDS011;6566;57.702;11.984;2022-07-24T11:48:17;2.55;;;1.42;;
13002;SDS011;6566;57.702;11.984;2022-07-24T11:50:47;1.80;;;1.30;;
13002;SDS011;6566;57.702;11.984;2022-07-24T11:53:13;1.58;;;1.20;;
13002;SDS011;6566;57.702;11.984;2022-07-24T11:55:39;3.20;;;1.20;;
13002;SDS011;6566;57.702;11.984;2022-07-24T11:58:11;5.25;;;1.50;;
13002;SDS011;6566;57.702;11.984;2022-07-24T12:00:44;3.47;;;1.50;;
13002;SDS011;6566;57.702;11.984;2022-07-24T12:03:10;2.67;;;1.40;;
13002;SDS011;6566;57.702;11.984;2022-07-24T12:05:37;4.15;;;1.45;;
13002;SDS011;6566;57.702;11.984;2022-07-24T12:08:15;2.70;;;1.42;;
13002;SDS011;6566;57.702;11.984;2022-07-24T12:10:42;6.70;;;1.55;;
13002;SDS011;6566;57.702;11.984;2022-07-24T12:13:08;1.90;;;1.38;;
13002;SDS011;6566;57.702;11.984;2022-07-24T12:15:36;3.03;;;1.42;;
13002;SDS011;6566;57.702;11.984;2022-07-24T12:18:04;5.70;;;1.75;;
13002;SDS011;6566;57.702;11.984;2022-07-24T12:20:39;4.30;;;1.60;;
13002;SDS011;6566;57.702;11.984;2022-07-24T12:23:07;4.03;;;2.00;;
13002;SDS011;6566;57.702;11.984;2022-07-24T12:25:34;2.83;;;1.58;;
13002;SDS011;6566;57.702;11.984;2022-07-24T12:28:06;2.25;;;1.38;;
13002;SDS011;6566;57.702;11.984;2022-07-24T12:30:44;5.75;;;1.33;;
13002;SDS011;6566;57.702;11.984;2022-07-24T12:33:26;2.33;;;1.55;;
13002;SDS011;6566;57.702;11.984;2022-07-24T12:36:05;2.30;;;1.50;;
13002;SDS011;6566;57.702;11.984;2022-07-24T12:38:41;6.05;;;1.83;;
13002;SDS011;6566;57.702;11.984;2022-07-24T12:41:09;2.35;;;1.45;;
13002;SDS011;6566;57.702;11.984;2022-07-24T12:43:50;5.13;;;1.92;;
13002;SDS011;6566;57.702;11.984;2022-07-24T12:46:18;2.72;;;1.40;;
13002;SDS011;6566;57.702;11.984;2022-07-24T12:51:57;4.38;;;1.42;;
13002;SDS011;6566;57.702;11.984;2022-07-24T12:54:30;2.50;;;1.35;;
13002;SDS011;6566;57.702;11.984;2022-07-24T12:56:57;2.75;;;1.60;;
13002;SDS011;6566;57.702;11.984;2022-07-24T12:59:32;4.38;;;2.00;;
13002;SDS011;6566;57.702;11.984;2022-07-24T13:01:59;2.95;;;1.70;;
13002;SDS011;6566;57.702;11.984;2022-07-24T13:04:26;4.90;;;1.75;;
13002;SDS011;6566;57.702;11.984;2022-07-24T13:06:55;3.30;;;1.75;;
13002;SDS011;6566;57.702;11.984;2022-07-24T13:09:25;3.03;;;1.70;;
13002;SDS011;6566;57.702;11.984;2022-07-24T13:11:52;2.70;;;1.90;;
13002;SDS011;6566;57.702;11.984;2022-07-24T13:14:20;4.65;;;1.75;;
13002;SDS011;6566;57.702;11.984;2022-07-24T13:16:48;7.85;;;2.58;;
13002;SDS011;6566;57.702;11.984;2022-07-24T13:19:15;5.50;;;1.98;;
13002;SDS011;6566;57.702;11.984;2022-07-24T13:21:42;4.95;;;1.77;;
13002;SDS011;6566;57.702;11.984;2022-07-24T13:24:09;5.10;;;1.88;;
13002;SDS011;6566;57.702;11.984;2022-07-24T13:26:39;3.33;;;2.03;;
13002;SDS011;6566;57.702;11.984;2022-07-24T13:29:06;2.83;;;1.88;;
13002;SDS011;6566;57.702;11.984;2022-07-24T13:31:33;4.65;;;2.05;;
13002;SDS011;6566;57.702;11.984;2022-07-24T13:33:59;4.35;;;2.10;;
13002;SDS011;6566;57.702;11.984;2022-07-24T13:36:25;5.93;;;2.30;;
13002;SDS011;6566;57.702;11.984;2022-07-24T13:38:51;5.65;;;2.13;;
13002;SDS011;6566;57.702;11.984;2022-07-24T13:41:17;4.70;;;1.92;;
13002;SDS011;6566;57.702;11.984;2022-07-24T13:43:45;4.78;;;2.20;;
13002;SDS011;6566;57.702;11.984;2022-07-24T13:46:12;9.10;;;1.98;;
13002;SDS011;6566;57.702;11.984;2022-07-24T13:48:39;3.47;;;1.80;;
13002;SDS011;6566;57.702;11.984;2022-07-24T13:51:05;1.80;;;1.70;;
13002;SDS011;6566;57.702;11.984;2022-07-24T13:53:32;2.92;;;1.95;;
13002;SDS011;6566;57.702;11.984;2022-07-24T13:55:59;2.63;;;1.88;;
13002;SDS011;6566;57.702;11.984;2022-07-24T13:58:25;5.90;;;2.00;;
13002;SDS011;6566;57.702;11.984;2022-07-24T14:00:51;4.85;;;2.30;;
13002;SDS011;6566;57.702;11.984;2022-07-24T14:03:17;2.70;;;2.07;;
13002;SDS011;6566;57.702;11.984;2022-07-24T14:05:44;5.03;;;2.30;;
13002;SDS011;6566;57.702;11.984;2022-07-24T14:08:10;6.82;;;2.47;;
13002;SDS011;6566;57.702;11.984;2022-07-24T14:10:37;5.07;;;1.88;;
13002;SDS011;6566;57.702;11.984;2022-07-24T14:13:03;5.47;;;2.17;;
13002;SDS011;6566;57.702;11.984;2022-07-24T14:15:29;4.35;;;2.03;;
13002;SDS011;6566;57.702;11.984;2022-07-24T14:17:56;2.22;;;1.83;;
13002;SDS011;6566;57.702;11.984;2022-07-24T14:20:21;4.57;;;1.90;;
13002;SDS011;6566;57.702;11.984;2022-07-24T14:22:48;3.27;;;2.03;;
13002;SDS011;6566;57.702;11.984;2022-07-24T14:25:16;2.40;;;1.90;;
13002;SDS011;6566;57.702;11.984;2022-07-24T14:27:43;7.55;;;2.13;;
13002;SDS011;6566;57.702;11.984;2022-07-24T14:30:09;6.63;;;1.77;;
13002;SDS011;6566;57.702;11.984;2022-07-24T14:32:36;5.93;;;2.30;;
13002;SDS011;6566;57.702;11.984;2022-07-24T14:35:03;6.07;;;2.10;;
13002;SDS011;6566;57.702;11.984;2022-07-24T14:37:35;5.25;;;1.65;;
13002;SDS011;6566;57.702;11.984;2022-07-24T14:40:03;4.15;;;2.17;;
13002;SDS011;6566;57.702;11.984;2022-07-24T14:42:30;5.10;;;1.90;;
13002;SDS011;6566;57.702;11.984;2022-07-24T14:44:56;3.78;;;1.98;;
13002;SDS011;6566;57.702;11.984;2022-07-24T14:47:23;5.43;;;2.00;;
13002;SDS011;6566;57.702;11.984;2022-07-24T14:49:49;7.72;;;1.77;;
13002;SDS011;6566;57.702;11.984;2022-07-24T14:52:16;4.90;;;2.00;;
13002;SDS011;6566;57.702;11.984;2022-07-24T14:54:44;6.45;;;2.10;;
13002;SDS011;6566;57.702;11.984;2022-07-24T14:57:10;4.88;;;1.90;;
13002;SDS011;6566;57.702;11.984;2022-07-24T14:59:37;4.43;;;1.90;;
13002;SDS011;6566;57.702;11.984;2022-07-24T15:02:03;5.50;;;2.03;;
13002;SDS011;6566;57.702;11.984;2022-07-24T15:04:30;6.00;;;2.15;;
13002;SDS011;6566;57.702;11.984;2022-07-24T15:06:56;5.22;;;1.90;;
13002;SDS011;6566;57.702;11.984;2022-07-24T15:09:21;7.30;;;2.70;;
13002;SDS011;6566;57.702;11.984;2022-07-24T15:11:48;8.25;;;2.15;;
13002;SDS011;6566;57.702;11.984;2022-07-24T15:14:14;3.03;;;1.92;;
13002;SDS011;6566;57.702;11.984;2022-07-24T15:16:40;4.30;;;1.80;;
13002;SDS011;6566;57.702;11.984;2022-07-24T15:19:07;4.20;;;2.03;;
13002;SDS011;6566;57.702;11.984;2022-07-24T15:21:34;2.60;;;1.70;;
13002;SDS011;6566;57.702;11.984;2022-07-24T15:24:01;4.20;;;1.70;;
13002;SDS011;6566;57.702;11.984;2022-07-24T15:26:26;3.60;;;1.70;;
13002;SDS011;6566;57.702;11.984;2022-07-24T15:28:52;4.33;;;2.03;;